Time;durP1;ratioP1;P1;durP2;ratioP2;P2;SDS_P1;SDS_P2;PMS_P1;PMS_P2;Temp;Humidity;BMP_temperature;BMP_pressure;BME280_temperature;BME280_humidity;BME280_pressure;Samples;Min_cycle;Max_cycle;Signal;HPM_P1;HPM_P2
2022/01/24 00:01:29;;;;;;;5.80;2.77;;;3.50;99.90;;;;;;5096360;28;20099;-85
2022/01/24 00:03:58;;;;;;;5.00;2.60;;;3.40;99.90;;;;;;5113457;28;20050;-82
2022/01/24 00:06:24;;;;;;;6.30;3.07;;;3.30;99.90;;;;;;5092096;28;20031;-81
2022/01/24 00:08:51;;;;;;;6.37;2.70;;;3.30;99.90;;;;;;5095352;28;20019;-82
2022/01/24 00:11:21;;;;;;;4.60;2.70;;;3.20;99.90;;;;;;5113712;27;20023;-82
2022/01/24 00:26:59;;;;;;;6.20;3.57;;;3.20;99.90;;;;;;5113509;27;20490;-81
2022/01/24 00:29:26;;;;;;;7.30;3.53;;;3.20;99.90;;;;;;5094024;28;20035;-79
2022/01/24 00:31:54;;;;;;;5.83;3.40;;;3.20;99.90;;;;;;5084909;28;20039;-80
2022/01/24 00:34:20;;;;;;;8.07;3.20;;;3.20;99.90;;;;;;5113125;28;20042;-81
2022/01/24 00:36:49;;;;;;;6.93;3.23;;;3.30;99.90;;;;;;5095939;28;20024;-82
2022/01/24 00:39:16;;;;;;;5.90;2.93;;;3.20;99.90;;;;;;5087565;28;20020;-82
2022/01/24 00:41:54;;;;;;;8.83;3.40;;;3.20;99.90;;;;;;5093920;28;20032;-82
2022/01/24 00:46:56;;;;;;;6.77;3.60;;;3.20;99.90;;;;;;5114063;28;20028;-80
2022/01/24 00:53:01;;;;;;;6.75;3.20;;;3.10;99.90;;;;;;5096593;28;20036;-83
2022/01/24 00:54:54;;;;;;;7.20;3.40;;;3.00;99.90;;;;;;5113172;28;20035;-83
2022/01/24 00:57:21;;;;;;;5.70;3.20;;;3.10;99.90;;;;;;5113015;28;20031;-83
2022/01/24 00:59:47;;;;;;;6.40;3.30;;;3.10;99.90;;;;;;5095244;28;20019;-81
2022/01/24 01:02:13;;;;;;;8.13;4.00;;;3.10;99.90;;;;;;5113610;28;20069;-83
2022/01/24 01:05:01;;;;;;;6.43;3.67;;;3.20;99.90;;;;;;5095467;28;20018;-82
2022/01/24 01:18:11;;;;;;;10.77;5.43;;;3.10;99.90;;;;;;5097198;28;20626;-80
2022/01/24 01:21:08;;;;;;;9.27;4.70;;;3.10;99.90;;;;;;5095422;28;20457;-81
2022/01/24 01:23:37;;;;;;;9.00;4.63;;;3.00;99.90;;;;;;5094997;28;20023;-80
2022/01/24 01:26:08;;;;;;;8.27;4.70;;;3.00;99.90;;;;;;5094575;28;20096;-80
2022/01/24 01:28:35;;;;;;;9.63;4.57;;;3.00;99.90;;;;;;5113166;28;20417;-79
2022/01/24 01:31:06;;;;;;;10.57;5.07;;;3.00;99.90;;;;;;5094647;28;20055;-79
2022/01/24 01:55:36;;;;;;;8.87;4.00;;;2.90;99.90;;;;;;5113557;28;20024;-81
2022/01/24 01:58:06;;;;;;;6.90;3.80;;;2.90;99.90;;;;;;5092663;28;20024;-81
2022/01/24 02:00:32;;;;;;;10.63;4.73;;;2.80;99.90;;;;;;5094820;28;20033;-82
2022/01/24 02:02:58;;;;;;;11.17;4.33;;;2.80;99.90;;;;;;5112573;28;20096;-82
2022/01/24 02:05:24;;;;;;;8.20;4.07;;;2.80;99.90;;;;;;5094902;28;20464;-81
2022/01/24 02:07:51;;;;;;;8.20;4.10;;;2.80;99.90;;;;;;5094369;28;20030;-80
2022/01/24 02:10:19;;;;;;;8.53;4.20;;;2.70;99.90;;;;;;5093852;28;20024;-82
2022/01/24 02:12:47;;;;;;;6.97;4.17;;;2.70;99.90;;;;;;5094870;28;20122;-82
2022/01/24 02:15:19;;;;;;;9.80;4.00;;;2.70;99.90;;;;;;5093672;28;20650;-82
2022/01/24 02:21:06;;;;;;;8.27;4.07;;;2.70;99.90;;;;;;5112721;28;20133;-81
2022/01/24 02:25:59;;;;;;;7.43;4.00;;;2.60;99.90;;;;;;5112100;28;20043;-79
2022/01/24 02:28:29;;;;;;;9.27;4.40;;;2.60;99.90;;;;;;5095336;28;20061;-80
2022/01/24 02:33:20;;;;;;;8.63;4.10;;;2.60;99.90;;;;;;5112837;28;20069;-80
2022/01/24 02:35:46;;;;;;;8.07;3.93;;;2.60;99.90;;;;;;5082380;28;20028;-80
2022/01/24 02:38:37;;;;;;;6.33;3.77;;;2.60;99.90;;;;;;5094244;28;20035;-80
2022/01/24 02:49:13;;;;;;;9.13;4.13;;;2.60;99.90;;;;;;5112105;28;20034;-80
2022/01/24 02:54:05;;;;;;;6.90;3.80;;;2.60;99.90;;;;;;5111780;28;20028;-80
2022/01/24 02:56:31;;;;;;;6.37;3.50;;;2.60;99.90;;;;;;5095633;28;20024;-80
2022/01/24 02:58:56;;;;;;;7.63;3.53;;;2.50;99.90;;;;;;5096936;28;20027;-79
2022/01/24 03:01:22;;;;;;;8.20;3.70;;;2.50;99.90;;;;;;5115425;28;20481;-80
2022/01/24 03:03:48;;;;;;;7.17;4.07;;;2.50;99.90;;;;;;5097673;28;20028;-79
2022/01/24 03:06:14;;;;;;;7.10;4.30;;;2.50;99.90;;;;;;5103038;28;20101;-79
2022/01/24 03:08:41;;;;;;;6.17;3.43;;;2.50;99.90;;;;;;5097475;28;20020;-80
2022/01/24 03:11:07;;;;;;;9.03;4.27;;;2.50;99.90;;;;;;5096533;28;20031;-79
2022/01/24 03:13:33;;;;;;;6.33;3.50;;;2.50;99.90;;;;;;5097344;28;20090;-80
2022/01/24 03:16:03;;;;;;;6.53;4.10;;;2.50;99.90;;;;;;5097225;28;20040;-80
2022/01/24 03:18:29;;;;;;;7.37;4.33;;;2.50;99.90;;;;;;5097523;28;20123;-80
2022/01/24 03:20:55;;;;;;;8.53;3.77;;;2.40;99.90;;;;;;5096161;28;20115;-79
2022/01/24 03:23:23;;;;;;;6.40;3.93;;;2.40;99.90;;;;;;5096776;28;20024;-80
2022/01/24 03:25:49;;;;;;;7.23;4.03;;;2.40;99.90;;;;;;5097421;28;20480;-80
2022/01/24 03:28:15;;;;;;;9.63;4.10;;;2.40;99.90;;;;;;5115208;28;20015;-79
2022/01/24 03:30:41;;;;;;;6.37;3.50;;;2.30;99.90;;;;;;5097675;28;20049;-80
2022/01/24 03:33:08;;;;;;;6.53;3.37;;;2.40;99.90;;;;;;5114699;28;20461;-80
2022/01/24 03:35:34;;;;;;;8.17;4.20;;;2.40;99.90;;;;;;5096710;28;20024;-80
2022/01/24 03:38:01;;;;;;;7.73;3.60;;;2.40;99.90;;;;;;5096877;28;20026;-80
2022/01/24 03:40:26;;;;;;;7.93;4.20;;;2.30;99.90;;;;;;5115264;28;20491;-81
2022/01/24 03:42:52;;;;;;;6.03;3.70;;;2.30;99.90;;;;;;5114559;28;20024;-78
2022/01/24 03:45:35;;;;;;;8.30;4.13;;;2.20;99.90;;;;;;5097099;28;20035;-80
2022/01/24 03:50:33;;;;;;;6.53;3.40;;;2.30;99.90;;;;;;5103571;28;20032;-79
2022/01/24 03:52:59;;;;;;;6.90;3.30;;;2.20;99.90;;;;;;5096452;28;20031;-78
2022/01/24 03:55:25;;;;;;;7.53;4.07;;;2.20;99.90;;;;;;5096640;28;20377;-78
2022/01/24 03:57:51;;;;;;;7.27;4.00;;;2.10;99.90;;;;;;5096702;28;20024;-75
2022/01/24 04:00:16;;;;;;;5.73;3.43;;;2.10;99.90;;;;;;5096477;28;20022;-78
2022/01/24 04:02:42;;;;;;;7.90;4.07;;;2.10;99.90;;;;;;5096777;28;20029;-78
2022/01/24 04:05:08;;;;;;;6.73;3.77;;;2.00;99.90;;;;;;5086639;28;20020;-78
2022/01/24 04:07:34;;;;;;;7.43;3.90;;;2.00;99.90;;;;;;5111051;28;20028;-78
2022/01/24 04:10:05;;;;;;;6.87;3.43;;;2.00;99.90;;;;;;5095762;28;20027;-78
2022/01/24 04:12:32;;;;;;;5.60;3.35;;;2.00;99.90;;;;;;5096638;28;20028;-78
2022/01/24 04:15:11;;;;;;;7.60;4.33;;;2.00;99.90;;;;;;5113870;28;20096;-78
2022/01/24 04:17:47;;;;;;;7.17;4.30;;;2.00;99.90;;;;;;5114195;28;20051;-78
2022/01/24 04:23:00;;;;;;;6.90;3.60;;;1.90;99.90;;;;;;5113474;28;20556;-78
2022/01/24 04:25:26;;;;;;;7.20;4.13;;;1.90;99.90;;;;;;5113696;28;20063;-79
2022/01/24 04:27:53;;;;;;;9.00;4.27;;;1.80;99.90;;;;;;5094911;28;20027;-76
2022/01/24 04:30:20;;;;;;;8.07;4.20;;;1.80;99.90;;;;;;5113566;28;20045;-79
2022/01/24 04:32:46;;;;;;;6.50;3.60;;;1.80;99.90;;;;;;5095985;28;20031;-79
2022/01/24 04:35:12;;;;;;;7.80;3.60;;;1.80;99.90;;;;;;5085827;28;20548;-81
2022/01/24 04:37:38;;;;;;;6.60;3.73;;;1.70;99.90;;;;;;5112062;28;20035;-82
2022/01/24 04:40:05;;;;;;;7.43;4.20;;;1.70;99.90;;;;;;5095783;28;20084;-79
2022/01/24 04:42:47;;;;;;;7.80;4.20;;;1.70;99.90;;;;;;5102213;28;20110;-80
2022/01/24 04:45:37;;;;;;;8.02;4.60;;;1.70;99.90;;;;;;5113879;28;20026;-79
2022/01/24 04:51:00;;;;;;;7.77;4.17;;;1.60;99.90;;;;;;5103553;28;20071;-79
2022/01/24 04:56:11;;;;;;;7.10;3.93;;;1.60;99.90;;;;;;5081254;28;20023;-79
2022/01/24 04:58:37;;;;;;;8.17;3.70;;;1.70;99.90;;;;;;5096197;28;20031;-80
2022/01/24 05:01:02;;;;;;;7.63;4.27;;;1.70;99.90;;;;;;5094981;28;20050;-79
2022/01/24 05:03:28;;;;;;;8.83;4.63;;;1.70;99.90;;;;;;5096096;28;20393;-79
2022/01/24 05:05:54;;;;;;;7.83;4.40;;;1.60;99.90;;;;;;5112792;28;20472;-78
2022/01/24 05:08:19;;;;;;;7.07;4.43;;;1.50;99.90;;;;;;5094993;28;20034;-80
2022/01/24 05:11:04;;;;;;;8.37;4.30;;;1.50;99.90;;;;;;5106057;28;20050;-80
2022/01/24 05:24:43;;;;;;;6.97;3.77;;;1.50;99.90;;;;;;5070626;28;20433;-79
2022/01/24 05:27:09;;;;;;;6.20;3.30;;;1.50;99.90;;;;;;5069520;28;20038;-79
2022/01/24 05:29:35;;;;;;;6.40;3.77;;;1.50;99.90;;;;;;5092776;28;20020;-79
2022/01/24 05:32:00;;;;;;;7.90;3.63;;;1.50;99.90;;;;;;5090606;28;20024;-79
2022/01/24 05:34:26;;;;;;;8.10;4.13;;;1.50;99.90;;;;;;5071497;28;20392;-79
2022/01/24 05:36:52;;;;;;;8.13;4.73;;;1.50;99.90;;;;;;5066095;28;20485;-77
2022/01/24 05:39:18;;;;;;;8.73;4.20;;;1.50;99.90;;;;;;5074772;28;20020;-78
2022/01/24 05:41:43;;;;;;;7.00;4.10;;;1.50;99.90;;;;;;5092389;28;20389;-79
2022/01/24 05:44:10;;;;;;;8.13;4.30;;;1.50;99.90;;;;;;5082755;28;20080;-80
2022/01/24 05:46:36;;;;;;;9.17;4.50;;;1.50;99.90;;;;;;5074836;28;20039;-80
2022/01/24 05:49:02;;;;;;;7.83;4.07;;;1.50;99.90;;;;;;5082341;28;20187;-80
2022/01/24 05:51:29;;;;;;;9.50;4.33;;;1.40;99.90;;;;;;5092717;28;20047;-80
2022/01/24 05:53:56;;;;;;;7.70;4.07;;;1.40;99.90;;;;;;5072959;28;20365;-80
2022/01/24 05:56:21;;;;;;;7.90;4.13;;;1.40;99.90;;;;;;5073869;28;20031;-81
2022/01/24 05:58:47;;;;;;;12.73;4.40;;;1.40;99.90;;;;;;5091895;28;20103;-81
2022/01/24 06:01:13;;;;;;;10.40;4.97;;;1.40;99.90;;;;;;5090494;28;20405;-79
2022/01/24 06:03:38;;;;;;;7.90;4.40;;;1.40;99.90;;;;;;5074411;28;20031;-79
2022/01/24 06:06:05;;;;;;;7.67;4.77;;;1.40;99.90;;;;;;5090343;28;20425;-79
2022/01/24 06:08:31;;;;;;;9.37;5.10;;;1.40;99.90;;;;;;5073792;28;20110;-79
2022/01/24 06:10:59;;;;;;;11.00;5.47;;;1.40;99.90;;;;;;5089865;28;20036;-80
2022/01/24 06:13:26;;;;;;;14.87;5.80;;;1.30;99.90;;;;;;5074463;28;20025;-80
2022/01/24 06:15:52;;;;;;;12.80;5.90;;;1.30;99.90;;;;;;5073892;28;20028;-80
2022/01/24 06:18:17;;;;;;;14.30;5.93;;;1.30;99.90;;;;;;5088842;28;20093;-80
2022/01/24 06:20:44;;;;;;;11.93;5.93;;;1.30;99.90;;;;;;5074454;28;20028;-80
2022/01/24 06:23:16;;;;;;;11.37;5.23;;;1.20;99.90;;;;;;5073662;28;20052;-79
2022/01/24 06:25:43;;;;;;;10.63;5.57;;;1.20;99.90;;;;;;5085356;28;20047;-79
2022/01/24 06:28:09;;;;;;;12.40;5.23;;;1.20;99.90;;;;;;5093343;28;20023;-78
2022/01/24 06:30:36;;;;;;;11.67;5.10;;;1.20;99.90;;;;;;5113522;28;20166;-79
2022/01/24 06:33:02;;;;;;;11.77;4.80;;;1.20;99.90;;;;;;5116255;28;20032;-79
2022/01/24 06:35:27;;;;;;;9.87;5.60;;;1.20;99.90;;;;;;5116964;28;20354;-79
2022/01/24 06:37:53;;;;;;;12.50;5.27;;;1.20;99.90;;;;;;5098355;28;20020;-79
2022/01/24 06:40:19;;;;;;;10.10;5.60;;;1.20;99.90;;;;;;5116059;28;20032;-79
2022/01/24 06:42:45;;;;;;;12.27;5.10;;;1.20;99.90;;;;;;5116693;28;20480;-80
2022/01/24 06:45:11;;;;;;;8.93;4.80;;;1.20;99.90;;;;;;5097203;28;20024;-79
2022/01/24 06:47:40;;;;;;;7.43;4.73;;;1.20;99.90;;;;;;5116173;28;20551;-80
2022/01/24 06:50:06;;;;;;;8.13;4.40;;;1.20;99.90;;;;;;5097369;28;20016;-80
2022/01/24 06:52:31;;;;;;;9.07;5.10;;;1.20;99.90;;;;;;5097174;28;20031;-80
2022/01/24 06:54:57;;;;;;;12.37;5.33;;;1.20;99.90;;;;;;5097384;28;20032;-79
2022/01/24 06:57:24;;;;;;;13.27;5.87;;;1.10;99.90;;;;;;5097894;28;20357;-80
2022/01/24 06:59:49;;;;;;;12.00;5.30;;;1.20;99.90;;;;;;5116050;28;20011;-77
2022/01/24 07:02:16;;;;;;;10.87;5.40;;;1.10;99.90;;;;;;5097839;28;20035;-79
2022/01/24 07:04:43;;;;;;;10.17;5.30;;;1.20;99.90;;;;;;5115795;28;20015;-79
2022/01/24 07:07:10;;;;;;;8.43;4.97;;;1.20;99.90;;;;;;5097446;28;20119;-79
2022/01/24 07:09:36;;;;;;;9.57;5.17;;;1.20;99.90;;;;;;5116050;28;20051;-78
2022/01/24 07:12:03;;;;;;;7.80;4.90;;;1.20;99.90;;;;;;5096354;28;20038;-80
2022/01/24 07:14:29;;;;;;;10.90;5.20;;;1.20;99.90;;;;;;5115777;28;20074;-80
2022/01/24 07:19:21;;;;;;;10.40;5.27;;;1.20;99.90;;;;;;5115404;28;20048;-79
2022/01/24 07:21:47;;;;;;;9.40;5.57;;;1.10;99.90;;;;;;5100097;27;20030;-78
2022/01/24 07:24:12;;;;;;;9.73;5.33;;;1.10;99.90;;;;;;5107724;27;20339;-78
2022/01/24 07:26:38;;;;;;;8.63;4.93;;;1.20;99.90;;;;;;5100131;28;20480;-78
2022/01/24 07:29:04;;;;;;;12.17;5.50;;;1.20;99.90;;;;;;5104615;28;20021;-78
2022/01/24 07:31:30;;;;;;;9.70;5.27;;;1.20;99.90;;;;;;5102416;28;20370;-80
2022/01/24 07:33:55;;;;;;;12.37;5.47;;;1.10;99.90;;;;;;5105529;28;20024;-80
2022/01/24 07:36:22;;;;;;;9.17;4.60;;;1.20;99.90;;;;;;5101680;28;20035;-80
2022/01/24 07:38:48;;;;;;;10.97;5.47;;;1.20;99.90;;;;;;5104686;28;20031;-80
2022/01/24 07:41:17;;;;;;;10.57;5.63;;;1.20;99.90;;;;;;5106183;28;20488;-79
2022/01/24 07:43:43;;;;;;;11.67;5.60;;;1.20;99.90;;;;;;5103169;28;20020;-81
2022/01/24 07:46:08;;;;;;;11.17;5.97;;;1.30;99.90;;;;;;5105320;28;20126;-81
2022/01/24 07:48:35;;;;;;;11.23;6.03;;;1.30;99.90;;;;;;5101843;28;20020;-81
2022/01/24 07:51:00;;;;;;;10.23;5.23;;;1.30;99.90;;;;;;5101245;28;20031;-79
2022/01/24 07:53:26;;;;;;;12.73;5.43;;;1.30;99.90;;;;;;5094365;28;20031;-80
2022/01/24 07:55:53;;;;;;;9.87;5.30;;;1.40;99.90;;;;;;5104075;28;20157;-78
2022/01/24 07:58:19;;;;;;;11.30;5.17;;;1.40;99.90;;;;;;5101041;28;20031;-80
2022/01/24 08:00:45;;;;;;;10.57;5.33;;;1.40;99.90;;;;;;5104062;28;20118;-80
2022/01/24 08:03:10;;;;;;;9.60;5.03;;;1.50;99.90;;;;;;5105629;28;20619;-80
2022/01/24 08:05:37;;;;;;;10.43;5.40;;;1.50;99.90;;;;;;5101426;28;20461;-80
2022/01/24 08:08:03;;;;;;;13.73;5.90;;;1.50;99.90;;;;;;5098464;28;20114;-80
2022/01/24 08:10:29;;;;;;;10.10;5.50;;;1.50;99.90;;;;;;5104545;28;20115;-80
2022/01/24 08:12:55;;;;;;;10.13;5.30;;;1.60;99.90;;;;;;5101069;28;20183;-79
2022/01/24 08:15:20;;;;;;;10.23;5.77;;;1.60;99.90;;;;;;5099210;28;20028;-78
2022/01/24 08:17:47;;;;;;;10.80;5.70;;;1.60;99.90;;;;;;5102810;28;20028;-79
2022/01/24 08:20:14;;;;;;;10.43;5.37;;;1.70;99.90;;;;;;5102157;28;20338;-81
2022/01/24 08:22:41;;;;;;;13.00;5.70;;;1.70;99.90;;;;;;5102957;28;20028;-79
2022/01/24 08:25:08;;;;;;;9.73;5.57;;;1.70;99.90;;;;;;5106601;27;20046;-80
2022/01/24 08:27:35;;;;;;;11.40;5.10;;;1.70;99.90;;;;;;5103756;28;20031;-79
2022/01/24 08:30:05;;;;;;;10.97;5.63;;;1.80;99.90;;;;;;5103496;27;20019;-79
2022/01/24 08:32:31;;;;;;;10.47;6.00;;;1.80;99.90;;;;;;5101956;27;20483;-78
2022/01/24 08:34:58;;;;;;;10.37;5.70;;;1.80;99.90;;;;;;5089640;28;20020;-79
2022/01/24 08:37:24;;;;;;;12.40;6.10;;;1.90;99.90;;;;;;5095445;27;20544;-79
2022/01/24 08:39:50;;;;;;;9.63;5.50;;;1.90;99.90;;;;;;5107146;28;20024;-80
2022/01/24 08:42:20;;;;;;;9.57;5.27;;;2.00;99.90;;;;;;5095688;28;20020;-82
2022/01/24 08:47:25;;;;;;;11.77;5.57;;;2.10;99.90;;;;;;5114099;28;20510;-82
2022/01/24 08:49:51;;;;;;;12.33;5.97;;;2.20;99.90;;;;;;5079237;28;20093;-79
2022/01/24 08:52:17;;;;;;;10.37;5.40;;;2.10;99.90;;;;;;5095864;28;20024;-81
2022/01/24 08:54:43;;;;;;;9.47;5.70;;;2.20;99.90;;;;;;5083442;28;20035;-81
2022/01/24 08:57:10;;;;;;;10.53;5.93;;;2.30;99.90;;;;;;5106865;28;20051;-81
2022/01/24 08:59:38;;;;;;;10.07;5.70;;;2.30;99.90;;;;;;5113964;28;20051;-81
2022/01/24 09:02:05;;;;;;;10.97;5.77;;;2.40;99.90;;;;;;5113595;28;20034;-83
2022/01/24 09:04:30;;;;;;;8.57;5.20;;;2.40;99.90;;;;;;5089056;28;20036;-79
2022/01/24 09:07:00;;;;;;;11.67;5.73;;;2.50;99.90;;;;;;5086743;28;20024;-78
2022/01/24 09:09:26;;;;;;;11.73;5.93;;;2.50;99.90;;;;;;5095663;28;20027;-79
2022/01/24 09:11:52;;;;;;;11.07;5.80;;;2.60;99.90;;;;;;5095699;28;20035;-78
2022/01/24 09:14:17;;;;;;;13.63;6.00;;;2.60;99.90;;;;;;5113578;28;20503;-80
2022/01/24 09:16:43;;;;;;;10.50;5.80;;;2.70;99.90;;;;;;5095661;28;20058;-79
2022/01/24 09:19:09;;;;;;;11.57;5.67;;;2.70;99.90;;;;;;5094603;28;20039;-83
2022/01/24 09:21:35;;;;;;;11.30;6.03;;;2.80;99.90;;;;;;5095609;28;20054;-81
2022/01/24 09:24:05;;;;;;;13.67;6.47;;;2.80;99.90;;;;;;5113184;28;20027;-81
2022/01/24 09:26:31;;;;;;;9.93;6.17;;;2.90;99.90;;;;;;5091696;28;20052;-78
2022/01/24 09:28:57;;;;;;;9.17;5.47;;;2.90;99.90;;;;;;5091859;28;20032;-78
2022/01/24 09:31:22;;;;;;;10.77;5.80;;;2.90;99.90;;;;;;5091047;28;20522;-78
2022/01/24 09:33:49;;;;;;;11.83;6.37;;;3.00;99.90;;;;;;5091863;28;20063;-79
2022/01/24 09:36:15;;;;;;;12.13;5.73;;;3.10;99.90;;;;;;5090983;28;20028;-78
2022/01/24 09:38:41;;;;;;;10.87;6.33;;;3.10;99.90;;;;;;5091773;28;20027;-78
2022/01/24 09:41:09;;;;;;;17.63;8.57;;;3.20;99.90;;;;;;5090672;28;20028;-77
2022/01/24 09:43:35;;;;;;;13.87;6.70;;;3.20;99.90;;;;;;5079652;28;20056;-79
2022/01/24 09:46:02;;;;;;;9.57;5.60;;;3.30;99.90;;;;;;5074367;28;20473;-77
2022/01/24 09:48:29;;;;;;;11.27;5.53;;;3.40;99.90;;;;;;5092019;28;20096;-78
2022/01/24 09:50:55;;;;;;;10.63;5.07;;;3.40;99.90;;;;;;5090223;28;20036;-76
2022/01/24 09:53:23;;;;;;;9.80;5.37;;;3.50;99.90;;;;;;5086140;28;20032;-78
2022/01/24 09:55:49;;;;;;;12.17;5.43;;;3.60;99.90;;;;;;5091322;28;20020;-78
2022/01/24 09:58:15;;;;;;;11.33;5.93;;;3.60;99.90;;;;;;5090476;28;20039;-78
2022/01/24 10:00:42;;;;;;;10.90;5.47;;;3.70;99.90;;;;;;5092594;28;20057;-79
2022/01/24 10:03:08;;;;;;;9.97;5.53;;;3.80;99.90;;;;;;5092679;28;20047;-81
2022/01/24 10:05:39;;;;;;;10.63;5.77;;;3.90;99.90;;;;;;5094191;28;20024;-81
2022/01/24 10:08:16;;;;;;;8.40;5.07;;;4.00;99.90;;;;;;5095902;28;20031;-79
2022/01/24 10:10:49;;;;;;;8.87;5.47;;;4.10;99.90;;;;;;5095041;28;20020;-78
2022/01/24 10:16:33;;;;;;;9.70;5.23;;;4.20;99.90;;;;;;5096540;28;20030;-76
2022/01/24 10:19:20;;;;;;;9.93;5.13;;;4.20;99.90;;;;;;5075168;28;20032;-77
2022/01/24 10:22:04;;;;;;;7.87;4.90;;;4.30;99.90;;;;;;5093102;28;20032;-76
2022/01/24 10:24:41;;;;;;;8.30;4.80;;;4.40;99.90;;;;;;5088138;28;20045;-77
2022/01/24 10:27:13;;;;;;;7.63;5.00;;;4.50;99.90;;;;;;5115136;28;20039;-78
2022/01/24 10:29:46;;;;;;;10.73;5.50;;;4.50;99.90;;;;;;5116186;28;20492;-78
2022/01/24 10:32:42;;;;;;;8.20;4.90;;;4.50;99.90;;;;;;5115138;28;20055;-77
2022/01/24 10:35:26;;;;;;;9.53;5.13;;;4.60;99.90;;;;;;5103841;28;20047;-77
2022/01/24 10:38:16;;;;;;;8.70;4.90;;;4.70;99.90;;;;;;5114934;28;20032;-76
2022/01/24 10:41:06;;;;;;;9.90;4.90;;;4.80;99.90;;;;;;5097606;28;20035;-78
2022/01/24 10:43:33;;;;;;;8.40;4.87;;;4.80;99.90;;;;;;5097279;28;20062;-77
2022/01/24 10:45:59;;;;;;;8.27;5.07;;;4.90;99.90;;;;;;5115497;28;20027;-77
2022/01/24 10:49:09;;;;;;;10.07;5.33;;;4.90;99.90;;;;;;5098009;28;20032;-77
2022/01/24 10:51:47;;;;;;;8.53;4.87;;;4.90;99.90;;;;;;5059422;28;20138;-79
2022/01/24 10:54:27;;;;;;;9.23;5.43;;;4.90;99.90;;;;;;5100200;27;20033;-80
2022/01/24 10:56:53;;;;;;;8.17;5.30;;;5.00;99.90;;;;;;5117206;27;20034;-79
2022/01/24 10:59:22;;;;;;;8.30;5.30;;;4.90;99.90;;;;;;5104455;27;20019;-77
2022/01/24 11:01:53;;;;;;;10.40;4.97;;;5.00;99.90;;;;;;5106110;28;20475;-77
2022/01/24 11:04:20;;;;;;;10.52;4.90;;;5.00;99.90;;;;;;5106856;28;20023;-77
2022/01/24 11:06:48;;;;;;;8.70;5.43;;;5.10;99.90;;;;;;5106690;27;20051;-76
2022/01/24 11:09:31;;;;;;;9.93;5.47;;;5.10;99.90;;;;;;5096944;27;20059;-79
2022/01/24 11:12:12;;;;;;;9.77;5.13;;;5.10;99.90;;;;;;5114453;27;20028;-79
2022/01/24 11:14:45;;;;;;;8.17;5.23;;;5.20;99.90;;;;;;5083475;28;20084;-78
2022/01/24 11:17:14;;;;;;;10.60;5.40;;;5.30;99.90;;;;;;5112994;28;20093;-79
2022/01/24 11:19:48;;;;;;;9.87;5.67;;;5.30;99.90;;;;;;5096939;28;20031;-80
2022/01/24 11:22:23;;;;;;;9.53;5.60;;;5.30;99.90;;;;;;5114839;28;20027;-79
2022/01/24 11:24:55;;;;;;;10.67;5.37;;;5.30;99.90;;;;;;5121329;27;20126;-78
2022/01/24 11:27:21;;;;;;;;;;;5.30;99.90;;;;;;5098359;28;20392;-77
2022/01/24 11:29:50;;;;;;;8.83;5.40;;;5.40;99.90;;;;;;5098404;28;19908;-78
2022/01/24 11:32:34;;;;;;;8.60;5.40;;;5.50;99.90;;;;;;5114512;28;20114;-77
2022/01/24 11:35:01;;;;;;;9.43;5.73;;;5.50;99.90;;;;;;5111960;28;20030;-78
2022/01/24 11:37:47;;;;;;;9.13;5.53;;;5.50;99.90;;;;;;5094171;28;20384;-76
2022/01/24 11:40:23;;;;;;;13.83;5.47;;;5.60;99.90;;;;;;5094287;28;20665;-77
2022/01/24 11:42:50;;;;;;;8.90;5.57;;;5.60;99.90;;;;;;5093917;28;20038;-76
2022/01/24 11:45:19;;;;;;;10.23;5.77;;;5.60;99.90;;;;;;5095695;28;20516;-77
2022/01/24 11:47:46;;;;;;;8.03;5.13;;;5.70;99.90;;;;;;5114220;28;20024;-77
2022/01/24 11:50:24;;;;;;;10.23;5.67;;;5.70;99.90;;;;;;5095549;28;20114;-77
2022/01/24 11:52:51;;;;;;;9.50;5.30;;;5.80;99.90;;;;;;5090922;28;20063;-76
2022/01/24 11:55:31;;;;;;;7.80;5.13;;;5.70;99.90;;;;;;5094951;28;20380;-77
2022/01/24 11:58:04;;;;;;;6.97;4.67;;;5.70;99.90;;;;;;5094830;28;20476;-76
2022/01/24 12:00:39;;;;;;;11.07;4.70;;;5.80;99.90;;;;;;5093166;28;20016;-76
2022/01/24 12:03:35;;;;;;;7.83;4.80;;;5.80;99.90;;;;;;5113251;28;20047;-79
2022/01/24 12:06:09;;;;;;;9.10;5.60;;;5.80;99.90;;;;;;5086304;28;20059;-79
2022/01/24 12:08:41;;;;;;;9.67;4.70;;;5.90;99.90;;;;;;5095654;28;20110;-78
2022/01/24 12:11:13;;;;;;;;;;;6.00;99.90;;;;;;5093156;28;20024;-78
2022/01/24 12:13:44;;;;;;;7.28;4.18;;;6.10;99.90;;;;;;5095850;28;20428;-78
2022/01/24 12:16:12;;;;;;;9.00;4.57;;;6.30;99.90;;;;;;5093814;28;20020;-79
2022/01/24 12:18:37;;;;;;;7.40;4.50;;;6.40;99.90;;;;;;5098299;28;20023;-79
2022/01/24 12:21:06;;;;;;;5.00;3.90;;;6.60;99.60;;;;;;5096407;28;20031;-77
2022/01/24 12:23:47;;;;;;;7.33;4.23;;;6.70;99.40;;;;;;5094704;28;20076;-77
2022/01/24 12:26:12;;;;;;;9.57;5.50;;;6.90;99.20;;;;;;5110771;28;20449;-77
2022/01/24 12:28:46;;;;;;;8.97;4.90;;;7.20;98.80;;;;;;5113031;28;20016;-78
2022/01/24 12:31:47;;;;;;;8.67;4.40;;;7.40;98.00;;;;;;5092231;28;20020;-78
2022/01/24 12:34:17;;;;;;;6.85;4.22;;;7.70;97.30;;;;;;5093122;28;20234;-77
2022/01/24 12:36:50;;;;;;;5.43;3.83;;;7.90;97.00;;;;;;5095248;28;20030;-77
2022/01/24 12:39:33;;;;;;;6.70;3.95;;;8.00;96.60;;;;;;5094401;28;20414;-77
2022/01/24 12:42:12;;;;;;;9.07;3.85;;;8.30;96.20;;;;;;5094809;28;20027;-77
2022/01/24 12:47:27;;;;;;;6.53;3.92;;;8.50;95.20;;;;;;5112033;28;20050;-82
2022/01/24 12:49:54;;;;;;;8.00;4.47;;;8.60;94.60;;;;;;5094281;28;20027;-77
2022/01/24 12:52:27;;;;;;;8.45;4.43;;;8.60;94.70;;;;;;5094716;28;20032;-78
2022/01/24 12:54:59;;;;;;;7.00;3.70;;;8.70;94.30;;;;;;5094501;28;20385;-77
2022/01/24 12:57:31;;;;;;;5.97;4.00;;;8.70;93.90;;;;;;5094951;28;20020;-77
2022/01/24 13:00:07;;;;;;;6.35;4.10;;;8.70;93.60;;;;;;5090518;28;20111;-77
2022/01/24 13:02:34;;;;;;;7.72;4.10;;;8.90;94.30;;;;;;5093304;28;20040;-79
2022/01/24 13:05:06;;;;;;;8.75;4.10;;;9.00;93.50;;;;;;5087749;28;20107;-81
2022/01/24 13:07:32;;;;;;;;;;;9.10;93.70;;;;;;5080871;28;20030;-80
2022/01/24 13:10:07;;;;;;;6.32;4.07;;;9.20;92.50;;;;;;5090520;28;19908;-79
2022/01/24 13:12:32;;;;;;;5.53;3.70;;;9.50;92.30;;;;;;5094926;28;20055;-80
2022/01/24 13:15:02;;;;;;;6.45;4.03;;;10.00;91.80;;;;;;5111272;28;20438;-78
2022/01/24 13:22:55;;;;;;;6.95;4.05;;;10.40;87.80;;;;;;5113423;28;20030;-79
2022/01/24 13:25:26;;;;;;;6.03;2.95;;;10.60;87.00;;;;;;5112614;28;20048;-79
2022/01/24 13:28:04;;;;;;;5.88;3.55;;;10.60;88.30;;;;;;5093144;28;20035;-78
2022/01/24 13:30:36;;;;;;;5.90;3.63;;;10.80;88.00;;;;;;5113136;28;20020;-80
2022/01/24 13:33:06;;;;;;;;;;;11.00;85.90;;;;;;5112627;28;20067;-79
2022/01/24 13:35:33;;;;;;;7.18;3.50;;;11.00;81.10;;;;;;5094445;28;19908;-78
2022/01/24 13:38:01;;;;;;;7.40;3.72;;;11.10;85.60;;;;;;5094317;28;20464;-78
2022/01/24 13:40:57;;;;;;;7.57;3.35;;;11.10;82.00;;;;;;5094268;28;20030;-82
2022/01/24 13:43:33;;;;;;;7.18;3.90;;;11.10;82.70;;;;;;5093082;28;20080;-78
2022/01/24 13:46:01;;;;;;;8.52;4.15;;;11.30;78.90;;;;;;5110373;28;20016;-79
2022/01/24 13:48:27;;;;;;;6.80;3.35;;;11.40;81.80;;;;;;5094816;28;20036;-81
2022/01/24 13:50:58;;;;;;;6.15;3.38;;;11.50;80.30;;;;;;5103737;28;20035;-84
2022/01/24 13:53:35;;;;;;;5.55;3.80;;;11.70;80.30;;;;;;5094600;28;20032;-78
2022/01/24 13:56:14;;;;;;;5.85;3.58;;;11.70;77.70;;;;;;5110010;28;20096;-77
2022/01/24 13:58:40;;;;;;;6.53;3.50;;;11.80;77.30;;;;;;5090050;28;20019;-78
2022/01/24 14:01:06;;;;;;;5.68;3.25;;;11.80;77.50;;;;;;5111171;28;20024;-77
2022/01/24 14:03:31;;;;;;;6.63;3.55;;;11.80;77.30;;;;;;5093843;28;20469;-77
2022/01/24 14:06:17;;;;;;;5.85;3.53;;;11.60;78.30;;;;;;5092230;28;20027;-78
2022/01/24 14:08:44;;;;;;;4.88;3.10;;;11.40;76.70;;;;;;5109944;28;20099;-78
2022/01/24 14:11:15;;;;;;;5.40;2.80;;;11.40;80.80;;;;;;5092760;28;20380;-78
2022/01/24 14:13:53;;;;;;;4.00;2.67;;;11.20;81.60;;;;;;5094085;28;20112;-78
2022/01/24 14:16:59;;;;;;;4.68;3.13;;;11.10;83.70;;;;;;5091033;28;20030;-77
2022/01/24 14:19:32;;;;;;;4.95;3.35;;;10.80;84.20;;;;;;5109224;28;20540;-79
2022/01/24 14:22:01;;;;;;;5.85;3.45;;;10.70;85.00;;;;;;5109436;28;20023;-78
2022/01/24 14:24:49;;;;;;;7.43;3.47;;;10.40;85.60;;;;;;5093528;28;20049;-77
2022/01/24 14:28:03;;;;;;;8.05;3.40;;;10.20;85.80;;;;;;5090112;28;20055;-78
2022/01/24 14:30:37;;;;;;;6.15;2.90;;;10.00;88.70;;;;;;5114042;28;20028;-77
2022/01/24 14:33:20;;;;;;;5.43;2.85;;;9.70;90.40;;;;;;5102295;28;20533;-77
2022/01/24 14:36:03;;;;;;;6.32;2.83;;;9.60;90.90;;;;;;5116515;28;20360;-77
2022/01/24 14:38:32;;;;;;;4.22;2.53;;;9.50;91.50;;;;;;5096946;28;20024;-77
2022/01/24 14:41:02;;;;;;;4.38;2.60;;;9.30;92.50;;;;;;5097853;28;20028;-88
2022/01/24 14:46:15;;;;;;;5.22;3.08;;;9.20;92.90;;;;;;5120836;28;20497;-80
2022/01/24 14:48:47;;;;;;;4.40;2.45;;;9.20;92.70;;;;;;5112589;28;20043;-80
2022/01/24 14:51:12;;;;;;;4.10;2.92;;;9.20;93.10;;;;;;5094449;28;20036;-86
2022/01/24 14:53:38;;;;;;;4.05;2.40;;;9.10;93.20;;;;;;5098142;28;20035;-82
2022/01/24 14:56:04;;;;;;;6.65;2.33;;;9.00;93.60;;;;;;5097940;28;20049;-81
2022/01/24 14:58:30;;;;;;;4.18;2.50;;;9.00;94.10;;;;;;5098862;28;20043;-83
2022/01/24 15:00:56;;;;;;;5.88;2.25;;;9.00;94.20;;;;;;5116109;28;20388;-79